Iberville, Canada
Current Conditions -  °F | °C
As of 5:41 AM on Sunday 21 Dec 2014 (Local Time) from CYHU Reporting Station
Light Snow Light Snow  
Wind Chill: 12°   Ceiling: 500
Heat Index: 12°   Visibility: 4mi
Dew Point: 10°   Wind: 2mph
Humidity: 92%   Direction: 130°SE
Pressure: 30.38"   Gusts: NA
Location:  45.32°N, 73.23°W
Report Text: CYHU 211041Z AUTO 13002KT 4SM -SN OVC005 M11/M12 A3038 RMK SLP289
Loading
Personal Weather Stations






























Interactive Weather Map New forecast layout! Learn more

10-Day Weather Forecast

Advertisements
Track Severe Weather on mobile